createdAt,value
2023-01-25T00:01:06.698Z,18.60
2023-01-25T00:03:35.042Z,18.60
2023-01-25T00:06:04.944Z,18.60
2023-01-25T00:08:35.019Z,18.50
2023-01-25T00:11:03.264Z,18.60
2023-01-25T00:13:31.772Z,18.50
2023-01-25T00:16:03.110Z,18.50
2023-01-25T00:18:31.637Z,18.60
2023-01-25T00:20:59.946Z,18.60
2023-01-25T00:23:29.494Z,18.50
2023-01-25T00:25:58.975Z,18.50
2023-01-25T00:28:27.354Z,18.50
2023-01-25T00:31:18.341Z,18.50
2023-01-25T00:34:46.209Z,18.50
2023-01-25T00:37:25.736Z,18.50
2023-01-25T00:39:55.877Z,18.50
2023-01-25T00:42:24.224Z,18.50
2023-01-25T00:44:52.599Z,18.60
2023-01-25T00:47:21.928Z,18.60
2023-01-25T00:49:50.394Z,18.60
2023-01-25T00:52:18.786Z,18.50
2023-01-25T00:54:47.037Z,18.50
2023-01-25T00:57:16.670Z,18.50
2023-01-25T00:59:45.902Z,18.50
2023-01-25T01:02:15.620Z,18.50
2023-01-25T01:04:43.980Z,18.60
2023-01-25T01:07:49.509Z,18.50
2023-01-25T01:11:36.680Z,18.50
2023-01-25T01:22:31.096Z,18.50
2023-01-25T01:24:59.357Z,18.50
2023-01-25T01:27:27.613Z,18.50
2023-01-25T01:29:55.873Z,18.50
2023-01-25T01:32:24.428Z,18.50
2023-01-25T01:34:53.358Z,18.50
2023-01-25T01:37:21.691Z,18.50
2023-01-25T01:39:52.790Z,18.50
2023-01-25T01:42:21.036Z,18.40
2023-01-25T01:44:51.512Z,18.50
2023-01-25T01:47:26.592Z,18.40
2023-01-25T01:50:03.881Z,18.40
2023-01-25T01:52:37.095Z,18.40
2023-01-25T01:55:10.220Z,18.40
2023-01-25T01:57:43.304Z,18.40
2023-01-25T02:00:16.317Z,18.40
2023-01-25T02:02:47.221Z,18.40
2023-01-25T02:05:21.146Z,18.40
2023-01-25T02:07:52.108Z,18.40
2023-01-25T02:10:25.118Z,18.40
2023-01-25T02:12:56.756Z,18.30
2023-01-25T02:15:28.776Z,18.30
2023-01-25T02:17:56.999Z,18.30
2023-01-25T02:20:29.694Z,18.30
2023-01-25T02:23:04.506Z,18.30
2023-01-25T02:25:34.356Z,18.30
2023-01-25T02:28:08.160Z,18.30
2023-01-25T02:30:36.548Z,18.40
2023-01-25T02:33:04.944Z,18.40
2023-01-25T02:35:42.503Z,18.40
2023-01-25T02:38:12.380Z,18.30
2023-01-25T02:40:47.747Z,18.30
2023-01-25T02:43:17.916Z,18.30
2023-01-25T02:45:50.414Z,18.30
2023-01-25T02:48:18.651Z,18.40
2023-01-25T02:50:46.898Z,18.40
2023-01-25T02:53:15.112Z,18.40
2023-01-25T02:55:45.293Z,18.40
2023-01-25T02:58:13.570Z,18.40
2023-01-25T03:00:41.899Z,18.40
2023-01-25T03:03:10.199Z,18.30
2023-01-25T03:05:38.367Z,18.30
2023-01-25T03:08:07.142Z,18.30
2023-01-25T03:10:35.965Z,18.40
2023-01-25T03:13:06.161Z,18.40
2023-01-25T03:15:34.578Z,18.40
2023-01-25T03:18:04.463Z,18.40
2023-01-25T03:20:32.888Z,18.40
2023-01-25T03:23:01.127Z,18.40
2023-01-25T03:25:30.056Z,18.30
2023-01-25T03:28:06.838Z,18.30
2023-01-25T03:30:35.148Z,18.30
2023-01-25T03:33:03.738Z,18.30
2023-01-25T03:35:32.059Z,18.30
2023-01-25T03:38:00.443Z,18.30
2023-01-25T03:40:29.238Z,18.30
2023-01-25T03:42:57.715Z,18.30
2023-01-25T03:45:27.754Z,18.30
2023-01-25T03:47:56.281Z,18.30
2023-01-25T03:50:24.439Z,18.30
2023-01-25T03:52:59.329Z,18.20
2023-01-25T03:55:29.269Z,18.30
2023-01-25T03:57:57.569Z,18.30
2023-01-25T04:00:28.998Z,18.30
2023-01-25T04:03:01.475Z,18.30
2023-01-25T04:05:30.856Z,18.30
2023-01-25T04:07:59.058Z,18.40
2023-01-25T04:10:35.430Z,18.30
2023-01-25T04:13:03.890Z,18.30
2023-01-25T04:15:33.735Z,18.30
2023-01-25T04:18:08.413Z,18.30
2023-01-25T04:20:36.739Z,18.40
2023-01-25T04:23:07.035Z,18.40
2023-01-25T04:25:39.295Z,18.40
2023-01-25T04:28:32.351Z,18.40
2023-01-25T04:31:03.588Z,18.40
2023-01-25T04:33:36.686Z,18.40
2023-01-25T04:36:05.916Z,18.40
2023-01-25T04:38:34.257Z,18.40
2023-01-25T04:41:04.128Z,18.40
2023-01-25T04:43:32.713Z,18.40
2023-01-25T04:46:08.170Z,18.40
2023-01-25T04:48:36.453Z,18.40
2023-01-25T04:51:09.443Z,18.40
2023-01-25T04:53:37.815Z,18.40
2023-01-25T04:56:08.319Z,18.40
2023-01-25T04:58:45.244Z,18.40
2023-01-25T05:01:15.066Z,18.40
2023-01-25T05:03:43.512Z,18.40
2023-01-25T05:06:22.190Z,18.40
2023-01-25T05:08:50.457Z,18.40
2023-01-25T05:11:18.637Z,18.40
2023-01-25T05:14:00.714Z,18.40
2023-01-25T05:16:34.086Z,18.40
2023-01-25T05:19:02.901Z,18.40
2023-01-25T05:22:01.721Z,18.40
2023-01-25T05:24:45.727Z,18.40
2023-01-25T05:27:17.476Z,18.40
2023-01-25T05:30:06.581Z,18.40
2023-01-25T05:32:51.009Z,18.50
2023-01-25T05:35:19.732Z,18.50
2023-01-25T05:37:49.835Z,18.50
2023-01-25T05:40:23.330Z,18.50
2023-01-25T05:42:55.806Z,18.50
2023-01-25T05:45:25.751Z,18.50
2023-01-25T05:47:59.770Z,18.50
2023-01-25T05:50:28.926Z,18.50
2023-01-25T05:53:09.373Z,18.50
2023-01-25T05:55:38.997Z,18.50
2023-01-25T05:58:14.172Z,18.50
2023-01-25T06:00:43.227Z,18.50
2023-01-25T06:03:18.370Z,18.50
2023-01-25T06:05:47.135Z,18.50
2023-01-25T06:08:15.329Z,18.50
2023-01-25T06:10:47.539Z,18.50
2023-01-25T06:13:15.848Z,18.50
2023-01-25T06:15:44.413Z,18.50
2023-01-25T06:18:34.397Z,18.50
2023-01-25T06:21:21.151Z,18.60
2023-01-25T06:23:49.419Z,18.50
2023-01-25T06:26:17.708Z,18.50
2023-01-25T06:28:45.921Z,18.50
2023-01-25T06:31:16.264Z,18.60
2023-01-25T06:33:49.918Z,18.60
2023-01-25T06:36:20.971Z,18.60
2023-01-25T06:38:50.605Z,18.50
2023-01-25T06:41:19.740Z,18.50
2023-01-25T06:43:48.901Z,18.50
2023-01-25T06:46:17.208Z,18.50
2023-01-25T06:48:46.879Z,18.60
2023-01-25T06:51:16.775Z,18.60
2023-01-25T06:53:46.852Z,18.60
2023-01-25T06:56:17.660Z,18.60
2023-01-25T06:58:46.159Z,18.60
2023-01-25T07:01:16.450Z,18.60
2023-01-25T07:03:48.883Z,18.60
2023-01-25T07:06:17.261Z,18.50
2023-01-25T07:08:45.744Z,18.50
2023-01-25T07:11:15.408Z,18.50
2023-01-25T07:13:45.723Z,18.40
2023-01-25T07:16:16.162Z,18.50
2023-01-25T07:18:46.139Z,18.50
2023-01-25T07:21:16.133Z,18.50
2023-01-25T07:23:45.117Z,18.50
2023-01-25T07:26:18.244Z,18.60
2023-01-25T07:28:47.441Z,18.60
2023-01-25T07:31:16.128Z,18.60
2023-01-25T07:33:48.652Z,18.60
2023-01-25T07:36:17.112Z,18.60
2023-01-25T07:38:45.314Z,18.60
2023-01-25T07:41:16.355Z,18.60
2023-01-25T07:43:44.672Z,18.60
2023-01-25T07:46:15.588Z,18.60
2023-01-25T07:48:48.391Z,18.60
2023-01-25T07:51:23.676Z,18.50
2023-01-25T07:53:54.101Z,18.50
2023-01-25T07:56:24.130Z,18.50
2023-01-25T07:58:53.897Z,18.50
2023-01-25T08:01:23.699Z,18.50
2023-01-25T08:03:54.187Z,18.50
2023-01-25T08:06:27.358Z,18.50
2023-01-25T08:08:56.342Z,18.50
2023-01-25T08:11:27.105Z,18.50
2023-01-25T08:13:55.555Z,18.50
2023-01-25T08:16:26.622Z,18.50
2023-01-25T08:18:57.687Z,18.50
2023-01-25T08:21:29.990Z,18.50
2023-01-25T08:23:59.244Z,18.50
2023-01-25T08:26:28.335Z,18.50
2023-01-25T08:28:57.239Z,18.60
2023-01-25T08:31:27.245Z,18.60
2023-01-25T08:33:57.392Z,18.60
2023-01-25T08:36:25.857Z,18.60
2023-01-25T08:38:56.812Z,18.60
2023-01-25T08:41:25.648Z,18.60
2023-01-25T08:43:55.429Z,18.60
2023-01-25T08:46:25.980Z,18.60
2023-01-25T08:48:56.560Z,18.60
2023-01-25T08:51:26.416Z,18.60
2023-01-25T08:53:54.907Z,18.60
2023-01-25T08:56:23.223Z,18.60
2023-01-25T08:58:52.143Z,18.60
2023-01-25T09:01:21.334Z,18.60
2023-01-25T09:03:51.394Z,18.60
2023-01-25T09:06:21.254Z,18.60
2023-01-25T09:08:49.804Z,18.50
2023-01-25T09:11:20.133Z,18.50
2023-01-25T09:13:49.074Z,18.50
2023-01-25T09:16:18.765Z,18.50
2023-01-25T09:18:49.807Z,18.50
2023-01-25T09:21:20.779Z,18.50
2023-01-25T09:23:57.458Z,18.50
2023-01-25T09:26:32.668Z,18.50
2023-01-25T09:29:01.141Z,18.50
2023-01-25T09:31:31.416Z,18.50
2023-01-25T09:34:12.353Z,18.50
2023-01-25T09:36:41.967Z,18.50
2023-01-25T09:39:12.169Z,18.50
2023-01-25T09:42:22.463Z,18.50
2023-01-25T09:45:11.708Z,18.50
2023-01-25T09:47:46.464Z,18.50
2023-01-25T09:50:47.166Z,18.50
2023-01-25T09:53:26.761Z,18.50
2023-01-25T09:55:58.703Z,18.50
2023-01-25T09:58:33.468Z,18.50
2023-01-25T10:01:14.654Z,18.50
2023-01-25T10:03:49.456Z,18.50
2023-01-25T10:06:20.279Z,18.50
2023-01-25T10:08:56.364Z,18.50
2023-01-25T10:11:28.005Z,18.50
2023-01-25T10:13:57.243Z,18.50
2023-01-25T10:16:30.858Z,18.50
2023-01-25T10:19:09.110Z,18.50
2023-01-25T10:21:42.147Z,18.50
2023-01-25T10:24:52.298Z,18.50
2023-01-25T10:27:30.052Z,18.60
2023-01-25T10:30:01.946Z,18.60
2023-01-25T10:32:32.479Z,18.60
2023-01-25T10:35:19.833Z,18.60
2023-01-25T10:37:54.919Z,18.60
2023-01-25T10:40:24.803Z,18.60
2023-01-25T10:43:00.157Z,18.60
2023-01-25T10:45:28.486Z,18.60
2023-01-25T10:48:03.114Z,18.60
2023-01-25T10:50:46.527Z,18.60
2023-01-25T10:53:27.911Z,18.60
2023-01-25T10:56:01.965Z,18.70
2023-01-25T10:58:37.422Z,18.70
2023-01-25T11:01:08.094Z,18.70
2023-01-25T11:03:38.910Z,18.70
2023-01-25T11:06:08.242Z,18.70
2023-01-25T11:08:38.610Z,18.70
2023-01-25T11:11:27.067Z,18.70
2023-01-25T11:13:56.771Z,18.70
2023-01-25T11:16:31.133Z,18.70
2023-01-25T11:19:01.268Z,18.70
2023-01-25T11:21:31.157Z,18.70
2023-01-25T11:24:05.471Z,18.70
2023-01-25T11:26:36.376Z,18.70
2023-01-25T11:29:13.703Z,18.70
2023-01-25T11:31:45.481Z,18.70
2023-01-25T11:34:15.946Z,18.70
2023-01-25T11:36:55.184Z,18.70
2023-01-25T11:39:39.536Z,18.70
2023-01-25T11:42:27.166Z,18.70
2023-01-25T11:45:34.746Z,18.70
2023-01-25T11:48:17.861Z,18.70
2023-01-25T11:50:52.064Z,18.70
2023-01-25T11:53:48.075Z,18.70
2023-01-25T11:56:25.424Z,18.70
2023-01-25T11:59:10.414Z,18.70
2023-01-25T12:02:04.740Z,18.70
2023-01-25T12:04:49.982Z,18.80
2023-01-25T12:07:23.621Z,18.80
2023-01-25T12:10:04.117Z,18.80
2023-01-25T12:12:42.942Z,18.80
2023-01-25T12:15:34.151Z,18.70
2023-01-25T12:18:29.758Z,18.80
2023-01-25T12:21:08.106Z,18.80
2023-01-25T12:24:01.360Z,18.80
2023-01-25T12:26:31.294Z,18.80
2023-01-25T12:29:06.677Z,18.80
2023-01-25T12:31:44.950Z,18.80
2023-01-25T12:34:20.527Z,18.80
2023-01-25T12:36:50.665Z,18.70
2023-01-25T12:39:24.392Z,18.70
2023-01-25T12:41:58.204Z,18.70
2023-01-25T12:44:30.977Z,18.70
2023-01-25T12:47:03.404Z,18.80
2023-01-25T12:49:39.400Z,18.80
2023-01-25T12:52:17.051Z,18.80
2023-01-25T12:54:47.227Z,18.80
2023-01-25T12:57:23.162Z,18.80
2023-01-25T13:00:01.777Z,18.80
2023-01-25T13:02:48.071Z,18.80
2023-01-25T13:05:26.517Z,18.80
2023-01-25T13:08:04.120Z,18.80
2023-01-25T13:10:37.534Z,18.80
2023-01-25T13:13:22.815Z,18.80
2023-01-25T13:15:51.458Z,18.80
2023-01-25T13:18:41.896Z,18.80
2023-01-25T13:21:41.633Z,18.80
2023-01-25T13:24:19.905Z,18.70
2023-01-25T13:26:50.843Z,18.80
2023-01-25T13:29:55.484Z,18.80
2023-01-25T13:32:56.691Z,18.80
2023-01-25T13:35:46.160Z,18.80
2023-01-25T13:38:37.418Z,18.80
2023-01-25T13:41:12.302Z,18.80
2023-01-25T13:43:43.450Z,18.80
2023-01-25T13:46:15.901Z,18.80
2023-01-25T13:49:00.022Z,18.80
2023-01-25T13:51:32.421Z,18.80
2023-01-25T13:54:02.442Z,18.80
2023-01-25T13:56:33.923Z,18.80
2023-01-25T13:59:02.609Z,18.80
2023-01-25T14:01:33.183Z,18.80
2023-01-25T14:04:05.633Z,18.80
2023-01-25T14:06:36.985Z,18.80
2023-01-25T14:09:16.675Z,18.80
2023-01-25T14:11:47.635Z,18.80
2023-01-25T14:14:21.542Z,18.80
2023-01-25T14:17:03.464Z,18.80
2023-01-25T14:19:33.481Z,18.80
2023-01-25T14:22:29.807Z,18.70
2023-01-25T14:25:18.163Z,18.70
2023-01-25T14:27:49.657Z,18.70
2023-01-25T14:30:21.436Z,18.70
2023-01-25T14:32:50.578Z,18.70
2023-01-25T14:35:54.753Z,18.70
2023-01-25T14:38:30.010Z,18.70
2023-01-25T14:41:03.295Z,18.80
2023-01-25T14:43:32.400Z,18.80
2023-01-25T14:46:00.703Z,18.80
2023-01-25T14:48:40.566Z,18.80
2023-01-25T14:51:16.722Z,18.80
2023-01-25T14:53:49.269Z,18.80
2023-01-25T14:56:33.586Z,18.80
2023-01-25T14:59:02.418Z,18.80
2023-01-25T15:01:34.064Z,18.80
2023-01-25T15:04:02.408Z,18.80
2023-01-25T15:06:30.767Z,18.80
2023-01-25T15:08:59.023Z,18.80
2023-01-25T15:11:45.384Z,18.80
2023-01-25T15:14:22.118Z,18.80
2023-01-25T15:16:50.397Z,18.80
2023-01-25T15:19:27.355Z,18.80
2023-01-25T15:21:57.481Z,18.80
2023-01-25T15:24:26.180Z,18.80
2023-01-25T15:26:57.016Z,18.80
2023-01-25T15:29:27.089Z,18.80
2023-01-25T15:31:57.168Z,18.80
2023-01-25T15:34:29.521Z,18.80
2023-01-25T15:36:57.789Z,18.80
2023-01-25T15:39:26.028Z,18.80
2023-01-25T15:41:55.699Z,18.80
2023-01-25T15:44:23.956Z,18.80
2023-01-25T15:46:53.659Z,18.80
2023-01-25T15:49:26.557Z,18.80
2023-01-25T15:51:55.117Z,18.80
2023-01-25T15:54:24.283Z,18.80
2023-01-25T15:56:56.399Z,18.80
2023-01-25T15:59:24.957Z,18.80
2023-01-25T16:01:53.276Z,18.80
2023-01-25T16:04:21.739Z,18.80
2023-01-25T16:06:52.107Z,18.80
2023-01-25T16:09:22.268Z,18.80
2023-01-25T16:11:52.877Z,18.80
2023-01-25T16:14:23.659Z,18.80
2023-01-25T16:16:53.511Z,18.80
2023-01-25T16:19:23.644Z,18.80
2023-01-25T16:21:52.659Z,18.80
2023-01-25T16:24:20.911Z,18.80
2023-01-25T16:26:52.639Z,18.80
2023-01-25T16:29:23.023Z,18.80
2023-01-25T16:31:51.669Z,18.80
2023-01-25T16:34:21.151Z,18.80
2023-01-25T16:36:51.166Z,18.80
2023-01-25T16:39:21.755Z,18.80
2023-01-25T16:41:50.747Z,18.80
2023-01-25T16:44:19.201Z,18.80
2023-01-25T16:46:50.219Z,18.80
2023-01-25T16:49:20.289Z,18.80
2023-01-25T16:51:49.029Z,18.80
2023-01-25T16:54:17.462Z,18.80
2023-01-25T16:56:45.694Z,18.80
2023-01-25T16:59:13.942Z,18.80
2023-01-25T17:01:42.542Z,18.90
2023-01-25T17:04:12.730Z,18.90
2023-01-25T17:06:43.756Z,18.90
2023-01-25T17:09:22.947Z,18.90
2023-01-25T17:11:52.197Z,18.90
2023-01-25T17:14:21.293Z,18.90
2023-01-25T17:16:51.557Z,18.90
2023-01-25T17:19:22.102Z,18.90
2023-01-25T17:21:50.592Z,18.90
2023-01-25T17:24:21.477Z,18.90
2023-01-25T17:26:50.818Z,18.90
2023-01-25T17:29:19.142Z,18.90
2023-01-25T17:31:47.436Z,18.90
2023-01-25T17:34:19.253Z,18.90
2023-01-25T17:36:50.059Z,18.90
2023-01-25T17:39:19.736Z,18.90
2023-01-25T17:41:50.350Z,19.00
2023-01-25T17:44:21.134Z,19.00
2023-01-25T17:46:49.761Z,19.00
2023-01-25T17:49:18.636Z,19.00
2023-01-25T17:51:48.322Z,19.00
2023-01-25T17:54:16.663Z,19.00
2023-01-25T17:56:45.141Z,19.00
2023-01-25T17:59:13.532Z,19.00
2023-01-25T18:01:43.726Z,18.90
2023-01-25T18:04:17.489Z,18.90
2023-01-25T18:06:45.837Z,18.90
2023-01-25T18:09:15.512Z,18.90
2023-01-25T18:11:43.773Z,18.90
2023-01-25T18:14:16.867Z,18.90
2023-01-25T18:16:45.469Z,18.80
2023-01-25T18:19:13.822Z,18.80
2023-01-25T18:21:43.302Z,18.90
2023-01-25T18:24:28.349Z,18.80
2023-01-25T18:27:05.101Z,18.90
2023-01-25T18:29:41.710Z,18.80
2023-01-25T18:32:10.026Z,18.80
2023-01-25T18:34:38.229Z,18.80
2023-01-25T18:37:17.734Z,18.90
2023-01-25T18:39:48.204Z,18.90
2023-01-25T18:42:16.600Z,18.90
2023-01-25T18:44:48.221Z,18.80
2023-01-25T18:47:18.664Z,18.80
2023-01-25T18:49:47.571Z,18.80
2023-01-25T18:52:16.638Z,18.80
2023-01-25T18:54:45.849Z,18.80
2023-01-25T18:57:15.992Z,18.80
2023-01-25T18:59:45.095Z,18.80
2023-01-25T19:02:14.529Z,18.80
2023-01-25T19:04:43.438Z,18.80
2023-01-25T19:07:11.706Z,18.80
2023-01-25T19:09:43.512Z,18.80
2023-01-25T19:12:14.841Z,18.80
2023-01-25T19:14:43.084Z,18.80
2023-01-25T19:17:11.423Z,18.80
2023-01-25T19:19:39.651Z,18.80
2023-01-25T19:22:07.897Z,18.80
2023-01-25T19:24:36.181Z,18.80
2023-01-25T19:27:04.534Z,18.80
2023-01-25T19:29:34.080Z,18.80
2023-01-25T19:32:02.229Z,18.70
2023-01-25T19:34:30.610Z,18.80
2023-01-25T19:36:58.913Z,18.80
2023-01-25T19:39:27.185Z,18.80
2023-01-25T19:41:55.538Z,18.70
2023-01-25T19:44:25.029Z,18.80
2023-01-25T19:46:54.672Z,18.80
2023-01-25T19:49:23.342Z,18.80
2023-01-25T19:51:53.757Z,18.70
2023-01-25T19:54:24.167Z,18.80
2023-01-25T19:56:52.550Z,18.80
2023-01-25T19:59:24.720Z,18.80
2023-01-25T20:01:54.434Z,18.80
2023-01-25T20:04:24.338Z,18.80
2023-01-25T20:06:53.095Z,18.80
2023-01-25T20:09:25.048Z,18.80
2023-01-25T20:11:56.461Z,18.80
2023-01-25T20:14:24.903Z,18.80
2023-01-25T20:16:54.486Z,18.80
2023-01-25T20:19:22.712Z,18.80
2023-01-25T20:21:51.006Z,18.80
2023-01-25T20:24:19.385Z,18.80
2023-01-25T20:26:47.725Z,18.80
2023-01-25T20:29:16.162Z,18.80
2023-01-25T20:31:45.878Z,18.80
2023-01-25T20:34:17.165Z,18.80
2023-01-25T20:36:46.059Z,18.80
2023-01-25T20:39:16.466Z,18.80
2023-01-25T20:41:45.244Z,18.80
2023-01-25T20:44:15.012Z,18.80
2023-01-25T20:46:43.983Z,18.80
2023-01-25T20:49:20.115Z,18.80
2023-01-25T20:51:48.714Z,18.80
2023-01-25T20:54:18.185Z,18.80
2023-01-25T20:56:47.947Z,18.80
2023-01-25T20:59:17.744Z,18.80
2023-01-25T21:01:46.712Z,18.90
2023-01-25T21:04:15.182Z,18.90
2023-01-25T21:06:44.891Z,18.80
2023-01-25T21:09:13.625Z,18.80
2023-01-25T21:11:42.085Z,18.80
2023-01-25T21:14:10.366Z,18.80
2023-01-25T21:16:38.608Z,18.80
2023-01-25T21:19:08.008Z,18.80
2023-01-25T21:21:38.203Z,18.80
2023-01-25T21:24:08.729Z,18.80
2023-01-25T21:26:38.326Z,18.80
2023-01-25T21:29:07.823Z,18.80
2023-01-25T21:31:37.261Z,18.80
2023-01-25T21:34:06.851Z,18.80
2023-01-25T21:36:35.043Z,18.80
2023-01-25T21:39:03.385Z,18.80
2023-01-25T21:41:34.365Z,18.80
2023-01-25T21:44:20.853Z,18.80
2023-01-25T21:47:16.286Z,18.70
2023-01-25T21:49:55.220Z,18.80
2023-01-25T21:52:23.543Z,18.80
2023-01-25T21:54:51.770Z,18.70
2023-01-25T21:57:21.355Z,18.70
2023-01-25T21:59:50.079Z,18.70
2023-01-25T22:02:19.272Z,18.70
2023-01-25T22:04:47.530Z,18.70
2023-01-25T22:07:15.772Z,18.70
2023-01-25T22:09:44.093Z,18.70
2023-01-25T22:12:12.830Z,18.70
2023-01-25T22:14:42.424Z,18.80
2023-01-25T22:17:10.626Z,18.80
2023-01-25T22:19:38.808Z,18.70
2023-01-25T22:22:07.064Z,18.70
2023-01-25T22:24:35.325Z,18.70
2023-01-25T22:27:42.284Z,18.70
2023-01-25T22:30:13.446Z,18.70
2023-01-25T22:32:41.974Z,18.80
2023-01-25T22:35:10.602Z,18.70
2023-01-25T22:37:38.903Z,18.70
2023-01-25T22:40:09.265Z,18.70
2023-01-25T22:42:37.946Z,18.60
2023-01-25T22:45:07.563Z,18.60
2023-01-25T22:47:37.210Z,18.60
2023-01-25T22:50:06.227Z,18.70
2023-01-25T22:52:34.426Z,18.60
2023-01-25T22:55:02.717Z,18.70
2023-01-25T22:57:30.920Z,18.70
2023-01-25T22:59:59.172Z,18.70
2023-01-25T23:02:27.295Z,18.70
2023-01-25T23:04:56.923Z,18.60
2023-01-25T23:07:25.263Z,18.60
2023-01-25T23:09:53.429Z,18.70
2023-01-25T23:12:21.681Z,18.70
2023-01-25T23:14:52.926Z,18.60
2023-01-25T23:17:39.672Z,18.60
2023-01-25T23:20:12.226Z,18.70
2023-01-25T23:22:41.002Z,18.70
2023-01-25T23:25:10.730Z,18.70
2023-01-25T23:27:39.392Z,18.60
2023-01-25T23:30:09.763Z,18.60
2023-01-25T23:32:38.296Z,18.60
2023-01-25T23:35:07.632Z,18.60
2023-01-25T23:37:37.216Z,18.60
2023-01-25T23:40:08.789Z,18.60
2023-01-25T23:42:37.242Z,18.60
2023-01-25T23:45:06.404Z,18.60
2023-01-25T23:47:34.731Z,18.60
2023-01-25T23:50:03.084Z,18.60
2023-01-25T23:52:31.730Z,18.60
2023-01-25T23:55:01.478Z,18.60
2023-01-25T23:57:29.806Z,18.60
2023-01-25T23:59:58.031Z,18.60
